createdAt,value
2022-10-10T00:01:28.881Z,4.37
2022-10-10T00:03:56.043Z,3.73
2022-10-10T00:06:23.554Z,3.00
2022-10-10T00:08:50.590Z,4.30
2022-10-10T00:11:19.152Z,4.13
2022-10-10T00:13:46.288Z,4.13
2022-10-10T00:16:13.072Z,8.67
2022-10-10T00:18:41.005Z,4.93
2022-10-10T00:21:08.577Z,3.47
2022-10-10T00:23:35.883Z,7.00
2022-10-10T00:26:08.337Z,4.70
2022-10-10T00:28:36.308Z,5.07
2022-10-10T00:31:03.015Z,3.67
2022-10-10T00:33:29.756Z,7.73
2022-10-10T00:35:56.321Z,3.33
2022-10-10T00:38:23.696Z,2.93
2022-10-10T00:40:53.719Z,3.43
2022-10-10T00:43:22.411Z,3.80
2022-10-10T00:45:49.679Z,3.33
2022-10-10T00:48:20.806Z,3.70
2022-10-10T00:50:50.259Z,3.97
2022-10-10T00:53:20.434Z,4.03
2022-10-10T00:55:47.765Z,3.80
2022-10-10T00:58:17.256Z,4.20
2022-10-10T01:00:44.103Z,3.23
2022-10-10T01:03:11.086Z,5.73
2022-10-10T01:05:38.567Z,2.97
2022-10-10T01:08:07.142Z,3.87
2022-10-10T01:10:45.104Z,4.17
2022-10-10T01:13:21.076Z,4.13
2022-10-10T01:16:01.146Z,3.63
2022-10-10T01:19:15.070Z,3.40
2022-10-10T01:21:56.877Z,3.33
2022-10-10T01:24:26.350Z,3.10
2022-10-10T01:27:43.247Z,4.30
2022-10-10T01:30:12.012Z,4.27
2022-10-10T01:32:46.420Z,3.93
2022-10-10T01:35:21.811Z,4.00
2022-10-10T01:37:52.751Z,5.37
2022-10-10T01:40:54.727Z,3.87
2022-10-10T01:43:21.473Z,5.00
2022-10-10T01:45:51.263Z,4.93
2022-10-10T01:48:24.493Z,6.13
2022-10-10T01:51:19.040Z,5.43
2022-10-10T01:54:13.213Z,6.20
2022-10-10T01:56:52.764Z,6.80
2022-10-10T01:59:41.114Z,6.73
2022-10-10T02:02:35.164Z,4.27
2022-10-10T02:05:14.853Z,5.63
2022-10-10T02:07:54.246Z,5.43
2022-10-10T02:10:26.782Z,5.10
2022-10-10T02:12:55.688Z,7.17
2022-10-10T02:15:26.358Z,5.27
2022-10-10T02:17:56.241Z,6.53
2022-10-10T02:20:26.132Z,6.60
2022-10-10T02:22:54.757Z,6.33
2022-10-10T02:25:27.080Z,4.60
2022-10-10T02:28:20.515Z,5.97
2022-10-10T02:30:50.889Z,6.77
2022-10-10T02:33:23.180Z,7.07
2022-10-10T02:35:51.744Z,7.37
2022-10-10T02:38:19.515Z,5.40
2022-10-10T02:40:48.114Z,5.50
2022-10-10T02:43:16.710Z,5.77
2022-10-10T02:45:43.898Z,6.43
2022-10-10T02:48:10.513Z,5.37
2022-10-10T02:50:37.814Z,5.33
2022-10-10T02:53:04.439Z,5.50
2022-10-10T02:55:31.120Z,4.93
2022-10-10T02:57:57.784Z,6.00
2022-10-10T03:00:24.488Z,4.53
2022-10-10T03:02:51.349Z,5.63
2022-10-10T03:05:18.551Z,4.63
2022-10-10T03:07:45.182Z,4.70
2022-10-10T03:10:11.837Z,5.40
2022-10-10T03:12:38.838Z,6.20
2022-10-10T03:15:11.248Z,5.43
2022-10-10T03:17:38.575Z,5.23
2022-10-10T03:20:06.067Z,5.37
2022-10-10T03:22:33.057Z,5.07
2022-10-10T03:24:59.879Z,5.97
2022-10-10T03:27:26.855Z,6.43
2022-10-10T03:29:53.622Z,6.77
2022-10-10T03:32:20.497Z,7.50
2022-10-10T03:34:47.493Z,4.40
2022-10-10T03:37:14.384Z,5.60
2022-10-10T03:39:40.964Z,5.87
2022-10-10T03:42:07.697Z,5.00
2022-10-10T03:44:34.342Z,5.57
2022-10-10T03:47:01.069Z,5.07
2022-10-10T03:49:27.962Z,4.33
2022-10-10T03:51:54.670Z,3.90
2022-10-10T03:54:21.276Z,4.13
2022-10-10T03:56:48.088Z,4.60
2022-10-10T03:59:14.683Z,5.70
2022-10-10T04:01:41.447Z,6.03
2022-10-10T04:04:08.336Z,5.87
2022-10-10T04:06:35.115Z,6.07
2022-10-10T04:09:01.819Z,5.03
2022-10-10T04:11:28.577Z,6.10
2022-10-10T04:13:58.351Z,4.47
2022-10-10T04:16:25.101Z,6.87
2022-10-10T04:18:51.898Z,4.90
2022-10-10T04:21:19.139Z,5.07
2022-10-10T04:23:45.860Z,4.40
2022-10-10T04:26:12.575Z,5.60
2022-10-10T04:28:39.241Z,4.30
2022-10-10T04:31:06.143Z,4.17
2022-10-10T04:33:32.855Z,4.40
2022-10-10T04:35:59.521Z,4.60
2022-10-10T04:38:26.209Z,4.87
2022-10-10T04:40:53.022Z,5.03
2022-10-10T04:43:19.846Z,5.00
2022-10-10T04:45:47.027Z,3.90
2022-10-10T04:48:13.846Z,4.23
2022-10-10T04:50:40.735Z,5.00
2022-10-10T04:53:08.335Z,4.60
2022-10-10T04:55:35.209Z,4.23
2022-10-10T04:58:01.820Z,4.57
2022-10-10T05:00:28.498Z,3.57
2022-10-10T05:02:55.174Z,3.97
2022-10-10T05:05:21.921Z,3.83
2022-10-10T05:07:53.039Z,4.80
2022-10-10T05:10:22.186Z,4.43
2022-10-10T05:12:49.103Z,5.53
2022-10-10T05:15:16.269Z,5.63
2022-10-10T05:17:42.985Z,5.57
2022-10-10T05:20:10.465Z,4.30
2022-10-10T05:22:37.038Z,5.43
2022-10-10T05:25:04.225Z,4.23
2022-10-10T05:27:30.827Z,4.27
2022-10-10T05:29:57.608Z,5.30
2022-10-10T05:32:24.292Z,4.40
2022-10-10T05:34:51.085Z,6.20
2022-10-10T05:37:17.657Z,5.70
2022-10-10T05:39:44.389Z,6.77
2022-10-10T05:42:11.386Z,5.27
2022-10-10T05:44:38.007Z,5.83
2022-10-10T05:47:05.019Z,6.00
2022-10-10T05:49:31.715Z,4.17
2022-10-10T05:51:58.278Z,4.13
2022-10-10T05:54:25.256Z,3.67
2022-10-10T05:56:51.847Z,5.23
2022-10-10T05:59:18.523Z,4.43
2022-10-10T06:01:45.427Z,4.03
2022-10-10T06:04:12.332Z,4.97
2022-10-10T06:06:38.956Z,5.30
2022-10-10T06:09:05.887Z,4.30
2022-10-10T06:11:32.515Z,4.70
2022-10-10T06:13:59.179Z,6.23
2022-10-10T06:16:27.277Z,5.27
2022-10-10T06:18:54.013Z,5.20
2022-10-10T06:21:20.609Z,5.30
2022-10-10T06:23:47.393Z,5.63
2022-10-10T06:26:15.386Z,4.30
2022-10-10T06:28:42.156Z,7.10
2022-10-10T06:31:11.281Z,4.57
2022-10-10T06:33:37.914Z,4.93
2022-10-10T06:36:06.547Z,5.07
2022-10-10T06:38:40.764Z,4.80
2022-10-10T06:41:08.300Z,4.77
2022-10-10T06:43:35.345Z,5.00
2022-10-10T06:46:03.250Z,5.37
2022-10-10T06:48:29.937Z,5.23
2022-10-10T06:51:05.907Z,4.37
2022-10-10T06:53:33.204Z,3.77
2022-10-10T06:56:00.732Z,4.50
2022-10-10T06:58:29.223Z,4.27
2022-10-10T07:01:00.196Z,3.73
2022-10-10T07:03:28.566Z,4.10
2022-10-10T07:05:57.898Z,3.87
2022-10-10T07:08:25.222Z,4.30
2022-10-10T07:10:51.989Z,5.30
2022-10-10T07:13:19.262Z,4.37
2022-10-10T07:15:45.852Z,3.83
2022-10-10T07:18:12.768Z,5.93
2022-10-10T07:20:39.675Z,5.13
2022-10-10T07:23:06.341Z,4.67
2022-10-10T07:25:32.963Z,4.40
2022-10-10T07:27:59.770Z,3.70
2022-10-10T07:30:26.659Z,3.63
2022-10-10T07:32:54.181Z,3.33
2022-10-10T07:35:21.453Z,4.60
2022-10-10T07:37:48.552Z,3.20
2022-10-10T07:40:15.334Z,3.87
2022-10-10T07:42:42.106Z,5.00
2022-10-10T07:45:09.073Z,3.97
2022-10-10T07:47:35.794Z,5.00
2022-10-10T07:50:02.431Z,2.50
2022-10-10T07:52:29.143Z,3.47
2022-10-10T07:54:55.736Z,3.17
2022-10-10T07:57:22.462Z,3.67
2022-10-10T07:59:49.161Z,3.13
2022-10-10T08:02:15.919Z,4.67
2022-10-10T08:04:42.620Z,5.40
2022-10-10T08:07:09.534Z,6.87
2022-10-10T08:09:36.126Z,4.37
2022-10-10T08:12:02.848Z,5.23
2022-10-10T08:14:29.442Z,4.15
2022-10-10T08:16:56.124Z,5.10
2022-10-10T08:19:22.742Z,3.05
2022-10-10T08:21:49.412Z,5.85
2022-10-10T08:24:16.079Z,3.30
2022-10-10T08:26:42.787Z,3.90
2022-10-10T08:29:09.428Z,8.02
2022-10-10T08:31:36.246Z,2.90
2022-10-10T08:34:02.963Z,4.45
2022-10-10T08:36:29.615Z,3.55
2022-10-10T08:38:56.377Z,4.18
2022-10-10T08:41:31.792Z,4.20
2022-10-10T08:44:01.886Z,3.97
2022-10-10T08:46:57.552Z,4.13
2022-10-10T08:49:24.203Z,5.97
2022-10-10T08:52:06.928Z,3.78
2022-10-10T08:54:36.775Z,3.20
2022-10-10T08:57:06.536Z,2.72
2022-10-10T08:59:39.848Z,4.10
2022-10-10T09:02:43.724Z,3.00
2022-10-10T09:05:19.704Z,4.13
2022-10-10T09:08:26.780Z,3.35
2022-10-10T09:11:37.591Z,3.60
2022-10-10T09:14:17.353Z,4.53
2022-10-10T09:17:10.598Z,5.05
2022-10-10T09:20:06.844Z,4.00
2022-10-10T09:22:42.600Z,4.75
2022-10-10T09:25:20.905Z,4.95
2022-10-10T09:27:58.850Z,4.35
2022-10-10T09:30:27.752Z,3.92
2022-10-10T09:33:01.994Z,3.97
2022-10-10T09:35:32.268Z,4.63
2022-10-10T09:38:10.784Z,3.90
2022-10-10T09:40:43.725Z,3.85
2022-10-10T09:43:15.329Z,4.00
2022-10-10T09:45:47.393Z,2.72
2022-10-10T09:48:14.304Z,3.40
2022-10-10T09:50:43.773Z,4.82
2022-10-10T09:53:16.287Z,4.95
2022-10-10T09:55:45.783Z,3.05
2022-10-10T09:58:21.673Z,3.65
2022-10-10T10:00:48.665Z,3.20
2022-10-10T10:03:18.273Z,3.78
2022-10-10T10:05:54.923Z,3.28
2022-10-10T10:08:36.439Z,2.80
2022-10-10T10:11:04.873Z,3.08
2022-10-10T10:13:36.899Z,3.38
2022-10-10T10:16:12.691Z,3.97
2022-10-10T10:18:44.477Z,2.97
2022-10-10T10:21:16.523Z,4.72
2022-10-10T10:23:48.824Z,5.55
2022-10-10T10:26:18.358Z,4.60
2022-10-10T10:28:46.273Z,3.83
2022-10-10T10:31:24.582Z,3.60
2022-10-10T10:34:06.943Z,3.40
2022-10-10T10:36:42.403Z,3.97
2022-10-10T10:39:27.675Z,4.78
2022-10-10T10:42:24.815Z,2.70
2022-10-10T10:45:23.485Z,3.90
2022-10-10T10:47:56.067Z,2.88
2022-10-10T10:50:40.029Z,3.88
2022-10-10T10:53:31.833Z,2.67
2022-10-10T10:59:39.025Z,3.42
2022-10-10T11:02:08.951Z,5.38
2022-10-10T11:05:17.217Z,2.25
2022-10-10T11:07:38.382Z,4.35
2022-10-10T11:10:07.952Z,5.25
2022-10-10T11:12:50.671Z,5.75
2022-10-10T11:16:04.928Z,13.35
2022-10-10T11:18:33.224Z,4.03
2022-10-10T11:21:09.201Z,3.20
2022-10-10T11:23:53.479Z,4.05
2022-10-10T11:26:42.307Z,4.05
2022-10-10T11:29:36.842Z,3.60
2022-10-10T11:32:23.156Z,4.28
2022-10-10T11:35:06.831Z,3.35
2022-10-10T11:37:40.060Z,2.67
2022-10-10T11:40:23.786Z,3.15
2022-10-10T11:42:57.165Z,6.32
2022-10-10T11:45:43.604Z,3.60
2022-10-10T11:48:25.656Z,3.72
2022-10-10T11:51:06.113Z,3.00
2022-10-10T11:53:43.658Z,5.75
2022-10-10T11:56:17.971Z,3.42
2022-10-10T11:58:51.179Z,3.35
2022-10-10T12:01:25.497Z,3.97
2022-10-10T12:03:52.402Z,4.65
2022-10-10T12:06:42.306Z,4.80
2022-10-10T12:09:30.205Z,2.58
2022-10-10T12:12:02.839Z,3.45
2022-10-10T12:14:31.366Z,3.72
2022-10-10T12:16:58.930Z,2.83
2022-10-10T12:19:28.216Z,4.22
2022-10-10T12:22:01.557Z,4.88
2022-10-10T12:24:31.387Z,4.13
2022-10-10T12:26:58.224Z,3.75
2022-10-10T12:29:51.045Z,3.60
2022-10-10T12:32:21.090Z,7.60
2022-10-10T12:34:50.712Z,5.72
2022-10-10T12:37:22.331Z,4.07
2022-10-10T12:40:07.955Z,3.95
2022-10-10T12:43:00.982Z,5.63
2022-10-10T12:45:30.804Z,5.93
2022-10-10T12:48:06.063Z,6.30
2022-10-10T12:50:40.389Z,3.35
2022-10-10T12:53:18.757Z,5.07
2022-10-10T12:55:47.891Z,5.18
2022-10-10T12:58:27.542Z,4.40
2022-10-10T13:01:09.224Z,3.75
2022-10-10T13:03:47.719Z,4.70
2022-10-10T13:06:33.658Z,3.85
2022-10-10T13:09:02.846Z,5.30
2022-10-10T13:11:29.604Z,7.30
2022-10-10T13:13:57.779Z,4.80
2022-10-10T13:16:32.822Z,5.30
2022-10-10T13:19:01.269Z,5.45
2022-10-10T13:21:33.731Z,5.18
2022-10-10T13:24:04.291Z,5.25
2022-10-10T13:26:32.891Z,3.60
2022-10-10T13:29:05.066Z,3.28
2022-10-10T13:31:31.922Z,3.55
2022-10-10T13:34:02.411Z,4.50
2022-10-10T13:36:31.166Z,2.83
2022-10-10T13:38:58.543Z,5.97
2022-10-10T13:41:27.367Z,3.78
2022-10-10T13:43:54.676Z,7.15
2022-10-10T13:46:23.982Z,3.75
2022-10-10T13:48:50.651Z,3.00
2022-10-10T13:51:17.642Z,6.85
2022-10-10T13:53:47.292Z,4.45
2022-10-10T13:56:30.340Z,5.80
2022-10-10T13:59:04.667Z,7.97
2022-10-10T14:01:31.434Z,5.53
2022-10-10T14:04:07.846Z,7.35
2022-10-10T14:06:35.399Z,5.47
2022-10-10T14:09:34.517Z,4.53
2022-10-10T14:12:04.201Z,6.28
2022-10-10T14:14:40.439Z,5.63
2022-10-10T14:17:10.345Z,6.85
2022-10-10T14:19:37.462Z,5.57
2022-10-10T14:22:04.484Z,4.90
2022-10-10T14:24:31.350Z,3.78
2022-10-10T14:27:04.655Z,8.70
2022-10-10T14:29:31.441Z,6.75
2022-10-10T14:31:58.080Z,4.53
2022-10-10T14:34:24.821Z,6.47
2022-10-10T14:36:51.505Z,5.00
2022-10-10T14:39:19.497Z,5.78
2022-10-10T14:41:46.510Z,7.28
2022-10-10T14:44:13.861Z,5.95
2022-10-10T14:46:41.655Z,3.92
2022-10-10T14:49:19.453Z,7.25
2022-10-10T14:51:47.035Z,3.70
2022-10-10T14:54:14.510Z,5.78
2022-10-10T14:57:07.411Z,6.38
2022-10-10T14:59:46.199Z,5.25
2022-10-10T15:02:18.034Z,6.43
2022-10-10T15:04:44.643Z,4.60
2022-10-10T15:07:14.358Z,7.65
2022-10-10T15:09:56.556Z,12.55
2022-10-10T15:12:29.879Z,6.53
2022-10-10T15:14:56.491Z,6.30
2022-10-10T15:17:23.369Z,5.28
2022-10-10T15:19:49.935Z,6.30
2022-10-10T15:22:16.982Z,5.93
2022-10-10T15:24:43.687Z,10.73
2022-10-10T15:27:10.299Z,6.53
2022-10-10T15:29:38.952Z,5.60
2022-10-10T15:32:05.871Z,7.60
2022-10-10T15:34:32.502Z,5.18
2022-10-10T15:36:59.282Z,6.72
2022-10-10T15:39:25.898Z,6.25
2022-10-10T15:41:52.623Z,5.40
2022-10-10T15:44:19.592Z,7.78
2022-10-10T15:46:46.319Z,5.47
2022-10-10T15:49:13.457Z,7.00
2022-10-10T15:51:44.706Z,5.80
2022-10-10T15:54:11.928Z,6.45
2022-10-10T15:56:39.181Z,8.70
2022-10-10T15:59:06.537Z,5.32
2022-10-10T16:01:33.163Z,4.45
2022-10-10T16:04:02.853Z,7.75
2022-10-10T16:06:30.305Z,6.40
2022-10-10T16:09:16.277Z,5.50
2022-10-10T16:11:44.167Z,3.92
2022-10-10T16:14:11.187Z,4.18
2022-10-10T16:16:38.246Z,8.02
2022-10-10T16:19:05.240Z,6.28
2022-10-10T16:21:32.151Z,8.20
2022-10-10T16:23:59.603Z,5.72
2022-10-10T16:26:30.236Z,7.28
2022-10-10T16:28:57.679Z,9.93
2022-10-10T16:31:24.796Z,3.13
2022-10-10T16:33:52.239Z,9.43
2022-10-10T16:36:25.967Z,5.57
2022-10-10T16:38:54.756Z,4.70
2022-10-10T16:41:42.884Z,7.32
2022-10-10T16:44:09.922Z,10.27
2022-10-10T16:46:36.480Z,6.22
2022-10-10T16:49:03.183Z,6.43
2022-10-10T16:51:30.111Z,7.53
2022-10-10T16:54:00.405Z,14.15
2022-10-10T16:56:27.462Z,12.60
2022-10-10T16:58:54.155Z,68.90
2022-10-10T17:01:22.914Z,11.73
2022-10-10T17:03:51.049Z,6.05
2022-10-10T17:06:20.682Z,7.35
2022-10-10T17:08:52.680Z,5.82
2022-10-10T17:11:21.196Z,3.65
2022-10-10T17:13:48.587Z,8.77
2022-10-10T17:19:05.392Z,8.40
2022-10-10T17:21:32.047Z,9.45
2022-10-10T17:23:59.314Z,8.27
2022-10-10T17:26:26.567Z,7.57
2022-10-10T17:28:55.610Z,6.93
2022-10-10T17:31:22.852Z,833.45
2022-10-10T17:33:53.529Z,1704.53
2022-10-10T17:36:23.585Z,563.00
2022-10-10T17:38:50.276Z,530.03
2022-10-10T17:41:18.243Z,457.63
2022-10-10T17:43:45.528Z,57.90
2022-10-10T17:46:33.947Z,17.13
2022-10-10T17:49:03.046Z,12.98
2022-10-10T17:51:29.684Z,10.90
2022-10-10T17:53:59.764Z,7.85
2022-10-10T17:56:26.487Z,4.97
2022-10-10T17:58:53.354Z,7.15
2022-10-10T18:01:20.716Z,6.18
2022-10-10T18:03:48.202Z,8.40
2022-10-10T18:06:18.210Z,3.85
2022-10-10T18:08:47.235Z,7.53
2022-10-10T18:11:15.994Z,5.85
2022-10-10T18:13:42.840Z,4.93
2022-10-10T18:16:14.463Z,4.75
2022-10-10T18:18:45.660Z,6.75
2022-10-10T18:21:16.327Z,6.15
2022-10-10T18:23:42.964Z,5.80
2022-10-10T18:26:19.195Z,6.13
2022-10-10T18:28:46.581Z,5.40
2022-10-10T18:31:21.693Z,7.18
2022-10-10T18:33:48.809Z,5.13
2022-10-10T18:36:18.805Z,8.32
2022-10-10T18:38:46.058Z,8.43
2022-10-10T18:41:15.344Z,7.03
2022-10-10T18:43:42.507Z,5.97
2022-10-10T18:46:12.301Z,7.97
2022-10-10T18:48:39.355Z,5.90
2022-10-10T18:51:12.572Z,7.38
2022-10-10T18:53:41.950Z,4.35
2022-10-10T18:56:09.221Z,5.85
2022-10-10T18:58:36.773Z,5.60
2022-10-10T19:01:08.151Z,6.60
2022-10-10T19:03:36.808Z,6.38
2022-10-10T19:06:04.871Z,6.60
2022-10-10T19:08:31.565Z,7.35
2022-10-10T19:10:58.259Z,4.07
2022-10-10T19:13:25.101Z,5.55
2022-10-10T19:15:51.855Z,4.55
2022-10-10T19:18:19.752Z,5.85
2022-10-10T19:20:46.881Z,6.60
2022-10-10T19:23:14.595Z,6.80
2022-10-10T19:25:43.015Z,7.75
2022-10-10T19:28:09.798Z,6.28
2022-10-10T19:30:41.416Z,5.60
2022-10-10T19:33:09.287Z,5.63
2022-10-10T19:35:40.901Z,5.13
2022-10-10T19:38:10.065Z,4.47
2022-10-10T19:40:43.635Z,7.00
2022-10-10T19:43:10.500Z,5.85
2022-10-10T19:45:48.496Z,4.80
2022-10-10T19:48:16.081Z,5.65
2022-10-10T19:50:44.294Z,7.97
2022-10-10T19:53:14.434Z,6.20
2022-10-10T19:55:41.482Z,4.90
2022-10-10T19:58:08.258Z,6.50
2022-10-10T20:00:37.108Z,6.03
2022-10-10T20:03:03.936Z,5.63
2022-10-10T20:05:30.618Z,7.55
2022-10-10T20:07:57.326Z,5.13
2022-10-10T20:10:23.984Z,6.15
2022-10-10T20:12:50.621Z,8.23
2022-10-10T20:15:17.278Z,8.60
2022-10-10T20:17:44.263Z,7.03
2022-10-10T20:20:10.956Z,8.10
2022-10-10T20:22:38.355Z,8.45
2022-10-10T20:25:06.459Z,5.90
2022-10-10T20:27:34.130Z,6.82
2022-10-10T20:30:00.733Z,7.60
2022-10-10T20:32:27.432Z,7.40
2022-10-10T20:34:54.021Z,8.90
2022-10-10T20:37:20.736Z,6.65
2022-10-10T20:39:47.442Z,10.10
2022-10-10T20:42:14.079Z,8.65
2022-10-10T20:44:40.674Z,8.52
2022-10-10T20:47:07.455Z,7.72
2022-10-10T20:49:34.070Z,8.02
2022-10-10T20:52:00.662Z,7.07
2022-10-10T20:54:27.430Z,8.48
2022-10-10T20:56:54.086Z,5.40
2022-10-10T20:59:21.010Z,11.32
2022-10-10T21:01:47.868Z,6.18
2022-10-10T21:04:14.920Z,6.95
2022-10-10T21:06:42.249Z,7.60
2022-10-10T21:09:10.719Z,7.72
2022-10-10T21:11:37.842Z,6.07
2022-10-10T21:14:04.515Z,6.63
2022-10-10T21:16:37.370Z,7.90
2022-10-10T21:19:05.479Z,5.50
2022-10-10T21:21:33.227Z,6.03
2022-10-10T21:24:00.877Z,6.03
2022-10-10T21:26:29.011Z,7.80
2022-10-10T21:28:57.464Z,6.00
2022-10-10T21:31:34.221Z,9.93
2022-10-10T21:34:02.919Z,5.85
2022-10-10T21:36:30.510Z,8.40
2022-10-10T21:38:58.623Z,5.70
2022-10-10T21:41:25.636Z,5.93
2022-10-10T21:43:55.765Z,8.85
2022-10-10T21:46:25.693Z,7.45
2022-10-10T21:48:52.548Z,4.95
2022-10-10T21:51:20.172Z,7.18
2022-10-10T21:53:47.995Z,6.47
2022-10-10T21:56:15.270Z,4.70
2022-10-10T21:58:43.678Z,7.82
2022-10-10T22:01:15.894Z,5.07
2022-10-10T22:03:44.155Z,8.90
2022-10-10T22:06:13.980Z,6.28
2022-10-10T22:08:41.959Z,6.28
2022-10-10T22:11:15.205Z,5.72
2022-10-10T22:13:42.017Z,8.48
2022-10-10T22:16:09.659Z,7.45
2022-10-10T22:18:37.934Z,6.05
2022-10-10T22:21:07.404Z,6.70
2022-10-10T22:23:34.103Z,8.13
2022-10-10T22:26:00.889Z,4.97
2022-10-10T22:28:27.778Z,7.15
2022-10-10T22:30:54.531Z,6.15
2022-10-10T22:33:21.253Z,8.10
2022-10-10T22:35:47.833Z,6.32
2022-10-10T22:38:14.552Z,6.78
2022-10-10T22:40:41.147Z,9.30
2022-10-10T22:43:07.903Z,5.30
2022-10-10T22:45:34.637Z,5.93
2022-10-10T22:48:01.286Z,9.18
2022-10-10T22:50:27.938Z,6.70
2022-10-10T22:52:54.662Z,4.07
2022-10-10T22:55:21.253Z,4.70
2022-10-10T22:57:47.941Z,8.50
2022-10-10T23:00:15.744Z,4.75
2022-10-10T23:02:42.421Z,5.10
2022-10-10T23:05:09.352Z,11.63
2022-10-10T23:07:36.054Z,6.43
2022-10-10T23:10:02.874Z,8.77
2022-10-10T23:12:29.607Z,4.18
2022-10-10T23:14:56.245Z,5.32
2022-10-10T23:17:22.979Z,8.05
2022-10-10T23:19:49.560Z,5.35
2022-10-10T23:22:16.314Z,7.35
2022-10-10T23:24:42.929Z,6.47
2022-10-10T23:27:09.595Z,4.65
2022-10-10T23:29:36.235Z,5.70
2022-10-10T23:32:02.929Z,4.82
2022-10-10T23:34:29.529Z,5.22
2022-10-10T23:36:56.423Z,5.13
2022-10-10T23:39:22.997Z,5.70
2022-10-10T23:41:49.659Z,5.93
2022-10-10T23:44:16.276Z,5.45
2022-10-10T23:46:42.924Z,6.18
2022-10-10T23:49:10.095Z,5.93
2022-10-10T23:51:36.958Z,6.25
2022-10-10T23:54:03.660Z,5.38
2022-10-10T23:56:30.449Z,5.97
2022-10-10T23:58:57.254Z,6.32
